sensor_id;sensor_type;location;lat;lon;timestamp;P1;durP1;ratioP1;P2;durP2;ratioP2
32032;SDS011;31720;52.638;9.216;2023-08-06T00:01:59;3.20;;;2.08;;
32032;SDS011;31720;52.638;9.216;2023-08-06T00:05:00;3.33;;;2.00;;
32032;SDS011;31720;52.638;9.216;2023-08-06T00:08:02;3.03;;;1.67;;
32032;SDS011;31720;52.638;9.216;2023-08-06T00:11:03;2.88;;;2.03;;
32032;SDS011;31720;52.638;9.216;2023-08-06T00:14:06;3.25;;;1.95;;
32032;SDS011;31720;52.638;9.216;2023-08-06T00:17:08;7.15;;;2.45;;
32032;SDS011;31720;52.638;9.216;2023-08-06T00:20:09;1.83;;;1.58;;
32032;SDS011;31720;52.638;9.216;2023-08-06T00:23:11;2.85;;;1.95;;
32032;SDS011;31720;52.638;9.216;2023-08-06T00:26:12;6.97;;;2.42;;
32032;SDS011;31720;52.638;9.216;2023-08-06T00:29:15;3.05;;;1.95;;
32032;SDS011;31720;52.638;9.216;2023-08-06T00:32:17;2.00;;;1.73;;
32032;SDS011;31720;52.638;9.216;2023-08-06T00:35:18;3.47;;;2.30;;
32032;SDS011;31720;52.638;9.216;2023-08-06T00:38:20;3.65;;;2.30;;
32032;SDS011;31720;52.638;9.216;2023-08-06T00:41:22;4.45;;;1.90;;
32032;SDS011;31720;52.638;9.216;2023-08-06T00:44:24;4.22;;;2.03;;
32032;SDS011;31720;52.638;9.216;2023-08-06T00:47:26;3.75;;;1.83;;
32032;SDS011;31720;52.638;9.216;2023-08-06T00:50:27;4.40;;;2.53;;
32032;SDS011;31720;52.638;9.216;2023-08-06T00:53:29;2.60;;;2.00;;
32032;SDS011;31720;52.638;9.216;2023-08-06T00:56:30;3.40;;;2.42;;
32032;SDS011;31720;52.638;9.216;2023-08-06T00:59:35;2.75;;;1.98;;
32032;SDS011;31720;52.638;9.216;2023-08-06T01:02:36;3.60;;;2.05;;
32032;SDS011;31720;52.638;9.216;2023-08-06T01:05:38;5.35;;;1.85;;
32032;SDS011;31720;52.638;9.216;2023-08-06T01:08:43;7.28;;;2.33;;
32032;SDS011;31720;52.638;9.216;2023-08-06T01:11:54;4.00;;;2.15;;
32032;SDS011;31720;52.638;9.216;2023-08-06T01:15:08;2.90;;;2.05;;
32032;SDS011;31720;52.638;9.216;2023-08-06T01:18:15;4.03;;;2.30;;
32032;SDS011;31720;52.638;9.216;2023-08-06T01:21:18;4.43;;;2.30;;
32032;SDS011;31720;52.638;9.216;2023-08-06T01:24:20;3.22;;;1.88;;
32032;SDS011;31720;52.638;9.216;2023-08-06T01:27:23;2.97;;;2.05;;
32032;SDS011;31720;52.638;9.216;2023-08-06T01:30:30;2.92;;;2.20;;
32032;SDS011;31720;52.638;9.216;2023-08-06T01:33:35;3.70;;;2.45;;
32032;SDS011;31720;52.638;9.216;2023-08-06T01:36:46;3.85;;;2.33;;
32032;SDS011;31720;52.638;9.216;2023-08-06T01:39:47;3.25;;;2.17;;
32032;SDS011;31720;52.638;9.216;2023-08-06T01:42:49;3.88;;;2.35;;
32032;SDS011;31720;52.638;9.216;2023-08-06T01:45:50;3.28;;;2.25;;
32032;SDS011;31720;52.638;9.216;2023-08-06T01:48:52;6.22;;;2.22;;
32032;SDS011;31720;52.638;9.216;2023-08-06T01:51:54;5.25;;;2.15;;
32032;SDS011;31720;52.638;9.216;2023-08-06T01:54:56;3.20;;;2.28;;
32032;SDS011;31720;52.638;9.216;2023-08-06T01:57:57;3.80;;;2.33;;
32032;SDS011;31720;52.638;9.216;2023-08-06T02:00:59;4.43;;;2.30;;
32032;SDS011;31720;52.638;9.216;2023-08-06T02:04:01;3.03;;;2.10;;
32032;SDS011;31720;52.638;9.216;2023-08-06T02:07:04;4.43;;;2.60;;
32032;SDS011;31720;52.638;9.216;2023-08-06T02:10:06;4.10;;;2.70;;
32032;SDS011;31720;52.638;9.216;2023-08-06T02:13:08;3.42;;;2.38;;
32032;SDS011;31720;52.638;9.216;2023-08-06T02:16:10;3.13;;;2.30;;
32032;SDS011;31720;52.638;9.216;2023-08-06T02:19:11;3.63;;;2.63;;
32032;SDS011;31720;52.638;9.216;2023-08-06T02:22:14;4.60;;;2.47;;
32032;SDS011;31720;52.638;9.216;2023-08-06T02:25:15;4.65;;;2.35;;
32032;SDS011;31720;52.638;9.216;2023-08-06T02:28:17;5.90;;;2.92;;
32032;SDS011;31720;52.638;9.216;2023-08-06T02:31:18;6.22;;;3.00;;
32032;SDS011;31720;52.638;9.216;2023-08-06T02:34:20;4.05;;;2.75;;
32032;SDS011;31720;52.638;9.216;2023-08-06T02:37:22;5.00;;;3.03;;
32032;SDS011;31720;52.638;9.216;2023-08-06T02:40:24;4.10;;;2.60;;
32032;SDS011;31720;52.638;9.216;2023-08-06T02:43:25;4.13;;;2.53;;
32032;SDS011;31720;52.638;9.216;2023-08-06T02:46:26;8.20;;;3.83;;
32032;SDS011;31720;52.638;9.216;2023-08-06T02:49:28;4.90;;;3.00;;
32032;SDS011;31720;52.638;9.216;2023-08-06T02:52:31;5.25;;;3.17;;
32032;SDS011;31720;52.638;9.216;2023-08-06T02:55:32;7.38;;;2.40;;
32032;SDS011;31720;52.638;9.216;2023-08-06T02:58:34;4.07;;;3.00;;
32032;SDS011;31720;52.638;9.216;2023-08-06T03:01:35;4.50;;;3.03;;
32032;SDS011;31720;52.638;9.216;2023-08-06T03:04:37;5.10;;;3.08;;
32032;SDS011;31720;52.638;9.216;2023-08-06T03:07:39;5.50;;;3.45;;
32032;SDS011;31720;52.638;9.216;2023-08-06T03:10:41;6.35;;;3.90;;
32032;SDS011;31720;52.638;9.216;2023-08-06T03:13:42;6.05;;;3.47;;
32032;SDS011;31720;52.638;9.216;2023-08-06T03:16:44;6.68;;;3.47;;
32032;SDS011;31720;52.638;9.216;2023-08-06T03:19:45;8.93;;;4.53;;
32032;SDS011;31720;52.638;9.216;2023-08-06T03:22:49;12.85;;;4.75;;
32032;SDS011;31720;52.638;9.216;2023-08-06T03:25:50;9.85;;;5.15;;
32032;SDS011;31720;52.638;9.216;2023-08-06T03:28:52;14.23;;;7.20;;
32032;SDS011;31720;52.638;9.216;2023-08-06T03:31:53;14.38;;;5.95;;
32032;SDS011;31720;52.638;9.216;2023-08-06T03:34:54;15.73;;;6.32;;
32032;SDS011;31720;52.638;9.216;2023-08-06T03:37:57;14.50;;;6.65;;
32032;SDS011;31720;52.638;9.216;2023-08-06T03:40:59;13.23;;;6.30;;
32032;SDS011;31720;52.638;9.216;2023-08-06T03:44:00;14.70;;;7.25;;
32032;SDS011;31720;52.638;9.216;2023-08-06T03:47:04;15.65;;;7.28;;
32032;SDS011;31720;52.638;9.216;2023-08-06T03:50:05;14.50;;;6.97;;
32032;SDS011;31720;52.638;9.216;2023-08-06T03:53:09;14.02;;;7.53;;
32032;SDS011;31720;52.638;9.216;2023-08-06T03:56:10;20.85;;;7.68;;
32032;SDS011;31720;52.638;9.216;2023-08-06T03:59:11;19.25;;;7.60;;
32032;SDS011;31720;52.638;9.216;2023-08-06T04:02:13;16.90;;;7.60;;
32032;SDS011;31720;52.638;9.216;2023-08-06T04:05:14;18.85;;;8.40;;
32032;SDS011;31720;52.638;9.216;2023-08-06T04:08:17;20.92;;;8.52;;
32032;SDS011;31720;52.638;9.216;2023-08-06T04:11:18;24.45;;;9.27;;
32032;SDS011;31720;52.638;9.216;2023-08-06T04:14:20;21.42;;;7.82;;
32032;SDS011;31720;52.638;9.216;2023-08-06T04:17:21;21.42;;;8.30;;
32032;SDS011;31720;52.638;9.216;2023-08-06T04:20:23;21.45;;;8.63;;
32032;SDS011;31720;52.638;9.216;2023-08-06T04:23:26;24.52;;;8.90;;
32032;SDS011;31720;52.638;9.216;2023-08-06T04:26:27;21.08;;;8.20;;
32032;SDS011;31720;52.638;9.216;2023-08-06T04:29:29;25.80;;;8.93;;
32032;SDS011;31720;52.638;9.216;2023-08-06T04:32:30;25.75;;;8.60;;
32032;SDS011;31720;52.638;9.216;2023-08-06T04:35:31;21.77;;;8.60;;
32032;SDS011;31720;52.638;9.216;2023-08-06T04:38:34;21.02;;;9.55;;
32032;SDS011;31720;52.638;9.216;2023-08-06T04:41:36;22.45;;;8.60;;
32032;SDS011;31720;52.638;9.216;2023-08-06T04:44:37;26.25;;;9.00;;
32032;SDS011;31720;52.638;9.216;2023-08-06T04:47:38;20.73;;;8.73;;
32032;SDS011;31720;52.638;9.216;2023-08-06T04:50:42;24.55;;;8.88;;
32032;SDS011;31720;52.638;9.216;2023-08-06T04:53:46;22.13;;;9.32;;
32032;SDS011;31720;52.638;9.216;2023-08-06T04:56:47;27.30;;;9.00;;
32032;SDS011;31720;52.638;9.216;2023-08-06T04:59:49;26.25;;;9.40;;
32032;SDS011;31720;52.638;9.216;2023-08-06T05:02:50;25.83;;;9.05;;
32032;SDS011;31720;52.638;9.216;2023-08-06T05:05:51;28.38;;;10.23;;
32032;SDS011;31720;52.638;9.216;2023-08-06T05:08:54;21.45;;;8.50;;
32032;SDS011;31720;52.638;9.216;2023-08-06T05:11:55;29.85;;;10.60;;
32032;SDS011;31720;52.638;9.216;2023-08-06T05:14:57;27.23;;;9.05;;
32032;SDS011;31720;52.638;9.216;2023-08-06T05:17:58;24.20;;;9.15;;
32032;SDS011;31720;52.638;9.216;2023-08-06T05:21:00;21.52;;;7.53;;
32032;SDS011;31720;52.638;9.216;2023-08-06T05:24:03;28.92;;;9.10;;
32032;SDS011;31720;52.638;9.216;2023-08-06T05:27:05;25.13;;;8.40;;
32032;SDS011;31720;52.638;9.216;2023-08-06T05:30:07;23.40;;;8.30;;
32032;SDS011;31720;52.638;9.216;2023-08-06T05:33:09;23.92;;;9.48;;
32032;SDS011;31720;52.638;9.216;2023-08-06T05:36:10;26.42;;;9.77;;
32032;SDS011;31720;52.638;9.216;2023-08-06T05:39:13;24.95;;;9.70;;
32032;SDS011;31720;52.638;9.216;2023-08-06T05:42:15;24.77;;;9.55;;
32032;SDS011;31720;52.638;9.216;2023-08-06T05:45:17;26.95;;;9.93;;
32032;SDS011;31720;52.638;9.216;2023-08-06T05:48:19;23.35;;;9.15;;
32032;SDS011;31720;52.638;9.216;2023-08-06T05:51:22;24.48;;;10.05;;
32032;SDS011;31720;52.638;9.216;2023-08-06T05:54:25;20.48;;;8.73;;
32032;SDS011;31720;52.638;9.216;2023-08-06T05:57:26;28.33;;;9.93;;
32032;SDS011;31720;52.638;9.216;2023-08-06T06:00:28;29.17;;;10.23;;
32032;SDS011;31720;52.638;9.216;2023-08-06T06:03:29;24.50;;;9.02;;
32032;SDS011;31720;52.638;9.216;2023-08-06T06:06:31;20.95;;;8.05;;
32032;SDS011;31720;52.638;9.216;2023-08-06T06:09:34;21.77;;;8.45;;
32032;SDS011;31720;52.638;9.216;2023-08-06T06:12:35;24.38;;;8.82;;
32032;SDS011;31720;52.638;9.216;2023-08-06T06:15:36;21.80;;;8.82;;
32032;SDS011;31720;52.638;9.216;2023-08-06T06:18:38;19.20;;;7.85;;
32032;SDS011;31720;52.638;9.216;2023-08-06T06:21:39;19.45;;;7.85;;
32032;SDS011;31720;52.638;9.216;2023-08-06T06:24:42;15.85;;;7.28;;
32032;SDS011;31720;52.638;9.216;2023-08-06T06:27:43;19.20;;;7.25;;
32032;SDS011;31720;52.638;9.216;2023-08-06T06:30:45;17.75;;;7.38;;
32032;SDS011;31720;52.638;9.216;2023-08-06T06:33:47;21.15;;;8.15;;
32032;SDS011;31720;52.638;9.216;2023-08-06T06:36:48;18.05;;;7.80;;
32032;SDS011;31720;52.638;9.216;2023-08-06T06:39:51;16.85;;;8.13;;
32032;SDS011;31720;52.638;9.216;2023-08-06T06:42:52;14.90;;;6.82;;
32032;SDS011;31720;52.638;9.216;2023-08-06T06:45:55;18.35;;;8.75;;
32032;SDS011;31720;52.638;9.216;2023-08-06T06:48:58;18.77;;;6.80;;
32032;SDS011;31720;52.638;9.216;2023-08-06T06:51:59;17.45;;;7.38;;
32032;SDS011;31720;52.638;9.216;2023-08-06T06:55:02;17.35;;;6.53;;
32032;SDS011;31720;52.638;9.216;2023-08-06T06:58:04;18.60;;;7.43;;
32032;SDS011;31720;52.638;9.216;2023-08-06T07:01:05;16.77;;;7.32;;
32032;SDS011;31720;52.638;9.216;2023-08-06T07:04:07;23.35;;;8.80;;
32032;SDS011;31720;52.638;9.216;2023-08-06T07:07:08;19.75;;;6.50;;
32032;SDS011;31720;52.638;9.216;2023-08-06T07:10:11;15.90;;;7.13;;
32032;SDS011;31720;52.638;9.216;2023-08-06T07:13:13;18.10;;;7.18;;
32032;SDS011;31720;52.638;9.216;2023-08-06T07:16:14;13.35;;;6.38;;
32032;SDS011;31720;52.638;9.216;2023-08-06T07:19:15;15.85;;;6.65;;
32032;SDS011;31720;52.638;9.216;2023-08-06T07:22:17;15.02;;;6.93;;
32032;SDS011;31720;52.638;9.216;2023-08-06T07:25:20;17.85;;;8.60;;
32032;SDS011;31720;52.638;9.216;2023-08-06T07:28:21;16.58;;;6.72;;
32032;SDS011;31720;52.638;9.216;2023-08-06T07:31:23;12.45;;;6.15;;
32032;SDS011;31720;52.638;9.216;2023-08-06T07:34:24;15.90;;;6.47;;
32032;SDS011;31720;52.638;9.216;2023-08-06T07:37:25;17.60;;;6.07;;
32032;SDS011;31720;52.638;9.216;2023-08-06T07:40:29;11.55;;;6.53;;
32032;SDS011;31720;52.638;9.216;2023-08-06T07:43:31;12.68;;;5.85;;
32032;SDS011;31720;52.638;9.216;2023-08-06T07:46:32;11.95;;;6.10;;
32032;SDS011;31720;52.638;9.216;2023-08-06T07:49:33;14.18;;;6.30;;
32032;SDS011;31720;52.638;9.216;2023-08-06T07:52:35;15.15;;;7.18;;
32032;SDS011;31720;52.638;9.216;2023-08-06T07:55:38;16.13;;;7.15;;
32032;SDS011;31720;52.638;9.216;2023-08-06T07:58:39;15.20;;;7.82;;
32032;SDS011;31720;52.638;9.216;2023-08-06T08:01:40;13.98;;;7.00;;
32032;SDS011;31720;52.638;9.216;2023-08-06T08:04:42;13.23;;;6.05;;
32032;SDS011;31720;52.638;9.216;2023-08-06T08:07:43;11.68;;;6.25;;
32032;SDS011;31720;52.638;9.216;2023-08-06T08:10:46;14.52;;;6.82;;
32032;SDS011;31720;52.638;9.216;2023-08-06T08:13:47;12.70;;;6.43;;
32032;SDS011;31720;52.638;9.216;2023-08-06T08:16:49;11.27;;;5.72;;
32032;SDS011;31720;52.638;9.216;2023-08-06T08:19:50;10.73;;;6.15;;
32032;SDS011;31720;52.638;9.216;2023-08-06T08:22:51;13.45;;;7.32;;
32032;SDS011;31720;52.638;9.216;2023-08-06T08:25:54;13.25;;;6.28;;
32032;SDS011;31720;52.638;9.216;2023-08-06T08:28:56;13.55;;;6.25;;
32032;SDS011;31720;52.638;9.216;2023-08-06T08:31:57;10.82;;;5.75;;
32032;SDS011;31720;52.638;9.216;2023-08-06T08:34:59;11.07;;;5.28;;
32032;SDS011;31720;52.638;9.216;2023-08-06T08:38:00;11.82;;;5.85;;
32032;SDS011;31720;52.638;9.216;2023-08-06T08:41:03;12.45;;;6.05;;
32032;SDS011;31720;52.638;9.216;2023-08-06T08:44:07;11.82;;;6.03;;
32032;SDS011;31720;52.638;9.216;2023-08-06T08:47:10;13.35;;;6.20;;
32032;SDS011;31720;52.638;9.216;2023-08-06T08:50:12;11.98;;;6.65;;
32032;SDS011;31720;52.638;9.216;2023-08-06T08:53:14;10.43;;;5.75;;
32032;SDS011;31720;52.638;9.216;2023-08-06T08:56:18;11.70;;;7.13;;
32032;SDS011;31720;52.638;9.216;2023-08-06T08:59:20;13.20;;;6.97;;
32032;SDS011;31720;52.638;9.216;2023-08-06T09:02:22;9.80;;;5.90;;
32032;SDS011;31720;52.638;9.216;2023-08-06T09:05:29;12.30;;;6.35;;
32032;SDS011;31720;52.638;9.216;2023-08-06T09:08:32;10.02;;;5.93;;
32032;SDS011;31720;52.638;9.216;2023-08-06T09:11:39;8.98;;;5.68;;
32032;SDS011;31720;52.638;9.216;2023-08-06T09:14:44;9.50;;;5.75;;
32032;SDS011;31720;52.638;9.216;2023-08-06T09:17:45;10.88;;;5.00;;
32032;SDS011;31720;52.638;9.216;2023-08-06T09:20:48;11.52;;;5.13;;
32032;SDS011;31720;52.638;9.216;2023-08-06T09:23:50;9.18;;;4.95;;
32032;SDS011;31720;52.638;9.216;2023-08-06T09:26:52;7.60;;;4.32;;
32032;SDS011;31720;52.638;9.216;2023-08-06T09:29:54;6.43;;;3.03;;
32032;SDS011;31720;52.638;9.216;2023-08-06T09:32:55;4.68;;;3.28;;
32032;SDS011;31720;52.638;9.216;2023-08-06T09:35:57;4.90;;;2.95;;
32032;SDS011;31720;52.638;9.216;2023-08-06T09:38:58;4.53;;;3.08;;
32032;SDS011;31720;52.638;9.216;2023-08-06T09:42:01;5.38;;;3.40;;
32032;SDS011;31720;52.638;9.216;2023-08-06T09:45:05;5.43;;;3.55;;
32032;SDS011;31720;52.638;9.216;2023-08-06T09:48:08;6.10;;;3.67;;
32032;SDS011;31720;52.638;9.216;2023-08-06T09:51:10;5.28;;;3.55;;
32032;SDS011;31720;52.638;9.216;2023-08-06T09:54:14;5.72;;;3.53;;
32032;SDS011;31720;52.638;9.216;2023-08-06T09:57:18;4.80;;;3.28;;
32032;SDS011;31720;52.638;9.216;2023-08-06T10:00:20;5.95;;;3.00;;
32032;SDS011;31720;52.638;9.216;2023-08-06T10:03:22;5.35;;;3.15;;
32032;SDS011;31720;52.638;9.216;2023-08-06T10:06:24;3.63;;;2.72;;
32032;SDS011;31720;52.638;9.216;2023-08-06T10:09:25;3.97;;;2.45;;
32032;SDS011;31720;52.638;9.216;2023-08-06T10:12:29;4.43;;;2.42;;
32032;SDS011;31720;52.638;9.216;2023-08-06T10:15:35;5.43;;;2.78;;
32032;SDS011;31720;52.638;9.216;2023-08-06T10:18:38;5.90;;;2.75;;
32032;SDS011;31720;52.638;9.216;2023-08-06T10:21:40;3.05;;;2.38;;
32032;SDS011;31720;52.638;9.216;2023-08-06T10:24:45;3.97;;;2.40;;
32032;SDS011;31720;52.638;9.216;2023-08-06T10:27:55;3.53;;;2.65;;
32032;SDS011;31720;52.638;9.216;2023-08-06T10:30:56;4.50;;;2.65;;
32032;SDS011;31720;52.638;9.216;2023-08-06T10:33:58;5.03;;;2.60;;
32032;SDS011;31720;52.638;9.216;2023-08-06T10:36:59;3.83;;;2.50;;
32032;SDS011;31720;52.638;9.216;2023-08-06T10:40:02;4.18;;;2.40;;
32032;SDS011;31720;52.638;9.216;2023-08-06T10:43:05;3.88;;;2.60;;
32032;SDS011;31720;52.638;9.216;2023-08-06T10:46:09;3.90;;;2.25;;
32032;SDS011;31720;52.638;9.216;2023-08-06T10:49:11;3.92;;;2.08;;
32032;SDS011;31720;52.638;9.216;2023-08-06T10:52:18;4.82;;;2.35;;
32032;SDS011;31720;52.638;9.216;2023-08-06T10:55:23;6.38;;;2.25;;
32032;SDS011;31720;52.638;9.216;2023-08-06T10:58:30;3.47;;;2.17;;
32032;SDS011;31720;52.638;9.216;2023-08-06T11:01:32;3.28;;;2.20;;
32032;SDS011;31720;52.638;9.216;2023-08-06T11:04:35;4.50;;;2.22;;
32032;SDS011;31720;52.638;9.216;2023-08-06T11:07:37;5.85;;;2.10;;
32032;SDS011;31720;52.638;9.216;2023-08-06T11:10:38;6.07;;;2.42;;
32032;SDS011;31720;52.638;9.216;2023-08-06T11:13:41;3.60;;;2.13;;
32032;SDS011;31720;52.638;9.216;2023-08-06T11:16:43;2.55;;;1.67;;
32032;SDS011;31720;52.638;9.216;2023-08-06T11:19:44;2.22;;;1.90;;
32032;SDS011;31720;52.638;9.216;2023-08-06T11:22:46;2.50;;;1.83;;
32032;SDS011;31720;52.638;9.216;2023-08-06T11:25:47;4.97;;;2.45;;
32032;SDS011;31720;52.638;9.216;2023-08-06T11:28:50;2.25;;;1.90;;
32032;SDS011;31720;52.638;9.216;2023-08-06T11:31:51;2.75;;;1.77;;
32032;SDS011;31720;52.638;9.216;2023-08-06T11:34:53;2.67;;;2.22;;
32032;SDS011;31720;52.638;9.216;2023-08-06T11:37:56;3.05;;;1.65;;
32032;SDS011;31720;52.638;9.216;2023-08-06T11:40:57;2.22;;;1.80;;
32032;SDS011;31720;52.638;9.216;2023-08-06T11:44:00;2.63;;;1.80;;
32032;SDS011;31720;52.638;9.216;2023-08-06T11:47:02;2.20;;;1.77;;
32032;SDS011;31720;52.638;9.216;2023-08-06T11:50:06;3.08;;;1.60;;
32032;SDS011;31720;52.638;9.216;2023-08-06T11:53:11;2.45;;;1.52;;
32032;SDS011;31720;52.638;9.216;2023-08-06T11:56:14;2.38;;;1.52;;
32032;SDS011;31720;52.638;9.216;2023-08-06T11:59:16;5.20;;;1.55;;
32032;SDS011;31720;52.638;9.216;2023-08-06T12:02:22;2.25;;;1.70;;
32032;SDS011;31720;52.638;9.216;2023-08-06T12:05:30;4.10;;;1.60;;
32032;SDS011;31720;52.638;9.216;2023-08-06T12:08:33;1.58;;;1.38;;
32032;SDS011;31720;52.638;9.216;2023-08-06T12:11:34;1.73;;;1.27;;
32032;SDS011;31720;52.638;9.216;2023-08-06T12:14:37;1.88;;;1.40;;
32032;SDS011;31720;52.638;9.216;2023-08-06T12:17:39;1.30;;;1.20;;
32032;SDS011;31720;52.638;9.216;2023-08-06T12:20:40;1.63;;;1.20;;
32032;SDS011;31720;52.638;9.216;2023-08-06T12:23:42;1.75;;;1.40;;
32032;SDS011;31720;52.638;9.216;2023-08-06T12:26:44;1.70;;;1.10;;
32032;SDS011;31720;52.638;9.216;2023-08-06T12:29:47;1.52;;;1.27;;
32032;SDS011;31720;52.638;9.216;2023-08-06T12:32:49;2.95;;;1.55;;
32032;SDS011;31720;52.638;9.216;2023-08-06T12:35:51;1.67;;;1.15;;
32032;SDS011;31720;52.638;9.216;2023-08-06T12:38:54;1.73;;;1.00;;
32032;SDS011;31720;52.638;9.216;2023-08-06T12:41:56;2.05;;;1.10;;
32032;SDS011;31720;52.638;9.216;2023-08-06T12:44:59;1.13;;;0.90;;
32032;SDS011;31720;52.638;9.216;2023-08-06T12:48:00;1.70;;;1.10;;
32032;SDS011;31720;52.638;9.216;2023-08-06T12:51:02;1.17;;;0.93;;
32032;SDS011;31720;52.638;9.216;2023-08-06T12:54:03;2.95;;;1.10;;
32032;SDS011;31720;52.638;9.216;2023-08-06T12:57:05;2.42;;;1.15;;
32032;SDS011;31720;52.638;9.216;2023-08-06T13:00:08;2.28;;;1.30;;
32032;SDS011;31720;52.638;9.216;2023-08-06T13:03:10;10.43;;;1.00;;
32032;SDS011;31720;52.638;9.216;2023-08-06T13:06:11;0.93;;;0.82;;
32032;SDS011;31720;52.638;9.216;2023-08-06T13:09:12;1.42;;;0.90;;
32032;SDS011;31720;52.638;9.216;2023-08-06T13:12:14;1.63;;;1.10;;
32032;SDS011;31720;52.638;9.216;2023-08-06T13:15:17;1.50;;;1.00;;
32032;SDS011;31720;52.638;9.216;2023-08-06T13:18:21;1.23;;;0.98;;
32032;SDS011;31720;52.638;9.216;2023-08-06T13:21:22;2.05;;;1.27;;
32032;SDS011;31720;52.638;9.216;2023-08-06T13:24:23;1.20;;;0.80;;
32032;SDS011;31720;52.638;9.216;2023-08-06T13:27:25;1.48;;;0.82;;
32032;SDS011;31720;52.638;9.216;2023-08-06T13:30:27;2.50;;;1.13;;
32032;SDS011;31720;52.638;9.216;2023-08-06T13:33:29;1.30;;;1.00;;
32032;SDS011;31720;52.638;9.216;2023-08-06T13:36:30;0.88;;;0.70;;
32032;SDS011;31720;52.638;9.216;2023-08-06T13:39:32;1.27;;;1.13;;
32032;SDS011;31720;52.638;9.216;2023-08-06T13:42:33;1.00;;;0.70;;
32032;SDS011;31720;52.638;9.216;2023-08-06T13:45:36;1.27;;;0.90;;
32032;SDS011;31720;52.638;9.216;2023-08-06T13:48:38;2.78;;;1.23;;
32032;SDS011;31720;52.638;9.216;2023-08-06T13:51:39;2.35;;;1.10;;
32032;SDS011;31720;52.638;9.216;2023-08-06T13:54:40;0.88;;;0.88;;
32032;SDS011;31720;52.638;9.216;2023-08-06T13:57:42;1.20;;;0.90;;
32032;SDS011;31720;52.638;9.216;2023-08-06T14:00:44;1.58;;;1.00;;
32032;SDS011;31720;52.638;9.216;2023-08-06T14:03:46;1.90;;;1.05;;
32032;SDS011;31720;52.638;9.216;2023-08-06T14:06:48;1.58;;;0.90;;
32032;SDS011;31720;52.638;9.216;2023-08-06T14:09:49;1.67;;;1.05;;
32032;SDS011;31720;52.638;9.216;2023-08-06T14:12:51;1.27;;;0.90;;
32032;SDS011;31720;52.638;9.216;2023-08-06T14:15:53;0.88;;;0.70;;
32032;SDS011;31720;52.638;9.216;2023-08-06T14:18:55;1.38;;;0.98;;
32032;SDS011;31720;52.638;9.216;2023-08-06T14:21:56;1.95;;;1.15;;
32032;SDS011;31720;52.638;9.216;2023-08-06T14:24:58;1.15;;;0.93;;
32032;SDS011;31720;52.638;9.216;2023-08-06T14:27:59;1.83;;;1.10;;
32032;SDS011;31720;52.638;9.216;2023-08-06T14:31:02;2.75;;;1.30;;
32032;SDS011;31720;52.638;9.216;2023-08-06T14:34:03;1.50;;;1.20;;
32032;SDS011;31720;52.638;9.216;2023-08-06T14:37:05;1.58;;;0.90;;
32032;SDS011;31720;52.638;9.216;2023-08-06T14:40:06;1.60;;;1.25;;
32032;SDS011;31720;52.638;9.216;2023-08-06T14:43:09;0.90;;;0.75;;
32032;SDS011;31720;52.638;9.216;2023-08-06T14:46:11;1.30;;;1.00;;
32032;SDS011;31720;52.638;9.216;2023-08-06T14:49:13;1.40;;;1.08;;
32032;SDS011;31720;52.638;9.216;2023-08-06T14:52:14;2.03;;;0.90;;
32032;SDS011;31720;52.638;9.216;2023-08-06T14:55:17;1.33;;;1.00;;
32032;SDS011;31720;52.638;9.216;2023-08-06T14:58:23;2.63;;;1.73;;
32032;SDS011;31720;52.638;9.216;2023-08-06T15:01:26;1.20;;;0.90;;
32032;SDS011;31720;52.638;9.216;2023-08-06T15:04:28;1.83;;;1.33;;
32032;SDS011;31720;52.638;9.216;2023-08-06T15:07:29;0.75;;;0.75;;
32032;SDS011;31720;52.638;9.216;2023-08-06T15:10:33;2.08;;;1.00;;
32032;SDS011;31720;52.638;9.216;2023-08-06T15:13:34;3.35;;;1.17;;
32032;SDS011;31720;52.638;9.216;2023-08-06T15:16:37;1.02;;;0.90;;
32032;SDS011;31720;52.638;9.216;2023-08-06T15:19:38;10.15;;;5.00;;
32032;SDS011;31720;52.638;9.216;2023-08-06T15:22:40;1.25;;;1.05;;
32032;SDS011;31720;52.638;9.216;2023-08-06T15:25:41;0.90;;;0.77;;
32032;SDS011;31720;52.638;9.216;2023-08-06T15:28:43;1.80;;;1.00;;
32032;SDS011;31720;52.638;9.216;2023-08-06T15:31:45;1.52;;;0.80;;
32032;SDS011;31720;52.638;9.216;2023-08-06T15:34:47;2.65;;;1.15;;
32032;SDS011;31720;52.638;9.216;2023-08-06T15:37:48;2.83;;;0.90;;
32032;SDS011;31720;52.638;9.216;2023-08-06T15:40:50;3.65;;;0.88;;
32032;SDS011;31720;52.638;9.216;2023-08-06T15:43:51;0.65;;;0.65;;
32032;SDS011;31720;52.638;9.216;2023-08-06T15:46:54;1.75;;;1.15;;
32032;SDS011;31720;52.638;9.216;2023-08-06T15:49:55;1.95;;;0.93;;
32032;SDS011;31720;52.638;9.216;2023-08-06T15:52:56;2.92;;;1.00;;
32032;SDS011;31720;52.638;9.216;2023-08-06T15:55:58;0.80;;;0.80;;
32032;SDS011;31720;52.638;9.216;2023-08-06T15:59:09;2.70;;;1.10;;
32032;SDS011;31720;52.638;9.216;2023-08-06T16:02:23;1.30;;;0.60;;
32032;SDS011;31720;52.638;9.216;2023-08-06T16:05:26;1.25;;;0.82;;
32032;SDS011;31720;52.638;9.216;2023-08-06T16:08:28;2.22;;;1.05;;
32032;SDS011;31720;52.638;9.216;2023-08-06T16:11:29;2.53;;;1.10;;
32032;SDS011;31720;52.638;9.216;2023-08-06T16:14:31;1.48;;;1.10;;
32032;SDS011;31720;52.638;9.216;2023-08-06T16:17:33;1.27;;;1.17;;
32032;SDS011;31720;52.638;9.216;2023-08-06T16:20:35;1.35;;;1.00;;
32032;SDS011;31720;52.638;9.216;2023-08-06T16:23:42;4.53;;;0.90;;
32032;SDS011;31720;52.638;9.216;2023-08-06T16:26:44;0.95;;;0.95;;
32032;SDS011;31720;52.638;9.216;2023-08-06T16:29:45;1.83;;;1.13;;
32032;SDS011;31720;52.638;9.216;2023-08-06T16:32:49;1.80;;;1.23;;
32032;SDS011;31720;52.638;9.216;2023-08-06T16:35:51;1.52;;;0.90;;
32032;SDS011;31720;52.638;9.216;2023-08-06T16:38:53;2.95;;;1.20;;
32032;SDS011;31720;52.638;9.216;2023-08-06T16:41:56;2.00;;;1.30;;
32032;SDS011;31720;52.638;9.216;2023-08-06T16:44:58;1.10;;;1.00;;
32032;SDS011;31720;52.638;9.216;2023-08-06T16:48:01;2.33;;;1.20;;
32032;SDS011;31720;52.638;9.216;2023-08-06T16:51:03;2.75;;;1.60;;
32032;SDS011;31720;52.638;9.216;2023-08-06T16:54:04;2.60;;;1.33;;
32032;SDS011;31720;52.638;9.216;2023-08-06T16:57:06;1.75;;;1.23;;
32032;SDS011;31720;52.638;9.216;2023-08-06T17:00:07;2.35;;;1.17;;
32032;SDS011;31720;52.638;9.216;2023-08-06T17:03:10;1.75;;;1.23;;
32032;SDS011;31720;52.638;9.216;2023-08-06T17:06:12;4.65;;;2.03;;
32032;SDS011;31720;52.638;9.216;2023-08-06T17:09:15;4.65;;;2.22;;
32032;SDS011;31720;52.638;9.216;2023-08-06T17:12:16;2.40;;;1.70;;
32032;SDS011;31720;52.638;9.216;2023-08-06T17:15:19;4.47;;;2.28;;
32032;SDS011;31720;52.638;9.216;2023-08-06T17:18:23;2.03;;;1.70;;
32032;SDS011;31720;52.638;9.216;2023-08-06T17:21:24;1.77;;;1.50;;
32032;SDS011;31720;52.638;9.216;2023-08-06T17:24:26;4.45;;;2.75;;
32032;SDS011;31720;52.638;9.216;2023-08-06T17:27:27;5.22;;;2.80;;
32032;SDS011;31720;52.638;9.216;2023-08-06T17:30:29;3.92;;;2.22;;
32032;SDS011;31720;52.638;9.216;2023-08-06T17:33:32;2.17;;;1.25;;
32032;SDS011;31720;52.638;9.216;2023-08-06T17:36:34;3.90;;;2.03;;
32032;SDS011;31720;52.638;9.216;2023-08-06T17:39:35;4.20;;;1.95;;
32032;SDS011;31720;52.638;9.216;2023-08-06T17:42:36;2.70;;;1.92;;
32032;SDS011;31720;52.638;9.216;2023-08-06T17:45:38;2.95;;;1.70;;
32032;SDS011;31720;52.638;9.216;2023-08-06T17:48:40;1.83;;;1.15;;
32032;SDS011;31720;52.638;9.216;2023-08-06T17:51:42;2.92;;;1.48;;
32032;SDS011;31720;52.638;9.216;2023-08-06T17:54:43;1.63;;;1.40;;
32032;SDS011;31720;52.638;9.216;2023-08-06T17:57:44;3.50;;;1.77;;
32032;SDS011;31720;52.638;9.216;2023-08-06T18:00:46;3.40;;;1.67;;
32032;SDS011;31720;52.638;9.216;2023-08-06T18:03:51;2.90;;;1.80;;
32032;SDS011;31720;52.638;9.216;2023-08-06T18:06:52;3.28;;;1.90;;
32032;SDS011;31720;52.638;9.216;2023-08-06T18:09:53;3.72;;;2.10;;
32032;SDS011;31720;52.638;9.216;2023-08-06T18:12:55;2.60;;;1.83;;